Time;durP1;ratioP1;P1;durP2;ratioP2;P2;SDS_P1;SDS_P2;PMS_P1;PMS_P2;Temp;Humidity;BMP_temperature;BMP_pressure;BME280_temperature;BME280_humidity;BME280_pressure;Samples;Min_cycle;Max_cycle;Signal;HPM_P1;HPM_P2
2024/01/13 00:00:12;;;;;;;69.60;26.03;;;;;;;-141.97;67.07;46590.84;5076741;28;20218;-89
2024/01/13 00:02:38;;;;;;;64.88;24.67;;;;;;;-141.97;67.68;46047.13;5077063;28;20175;-87
2024/01/13 00:05:04;;;;;;;51.27;21.60;;;;;;;-141.97;68.25;46081.69;5079070;28;20233;-89
2024/01/13 00:07:29;;;;;;;42.97;16.45;;;;;;;-141.97;68.84;46535.13;5076812;28;20230;-88
2024/01/13 00:09:55;;;;;;;59.77;21.47;;;;;;;-141.97;69.28;46527.44;5088221;28;20177;-89
2024/01/13 00:12:20;;;;;;;58.87;22.73;;;;;;;-141.97;69.65;46504.38;5071604;28;20185;-89
2024/01/13 00:14:46;;;;;;;59.87;22.73;;;;;;;-141.97;70.86;46116.28;5075052;28;20168;-88
2024/01/13 00:17:11;;;;;;;56.77;20.73;;;;;;;-141.97;70.96;45951.06;5057601;28;20464;-88
2024/01/13 00:19:36;;;;;;;50.87;20.20;;;;;;;-141.97;71.17;46335.31;5093048;28;20188;-87
2024/01/13 00:22:02;;;;;;;54.80;20.03;;;;;;;-141.97;71.40;45997.16;5079035;28;20222;-88
2024/01/13 00:24:27;;;;;;;52.87;20.30;;;;;;;-141.97;71.74;46583.16;5077879;28;20188;-88
2024/01/13 00:26:53;;;;;;;48.70;18.83;;;;;;;-141.97;72.30;45981.78;5077230;28;20161;-88
2024/01/13 00:29:18;;;;;;;63.80;23.33;;;;;;;-141.97;72.39;46233.47;5078132;28;20273;-88
2024/01/13 00:31:44;;;;;;;58.23;21.77;;;;;;;-141.97;72.70;46097.06;5079470;28;20229;-88
2024/01/13 00:34:09;;;;;;;56.27;21.17;;;;;;;-141.97;72.39;46502.47;5061383;28;20172;-88
2024/01/13 00:36:35;;;;;;;51.43;18.97;;;;;;;-141.97;72.26;46481.34;5063680;28;20580;-88
2024/01/13 00:39:01;;;;;;;44.20;14.50;;;;;;;-141.97;72.36;46112.44;5068456;28;20255;-88
2024/01/13 00:41:26;;;;;;;54.07;19.93;;;;;;;-141.97;72.69;46625.44;5083870;28;20160;-89
2024/01/13 00:43:52;;;;;;;52.97;19.37;;;;;;;-141.97;73.07;46546.66;5068799;28;20188;-89
2024/01/13 00:46:17;;;;;;;64.77;22.83;;;;;;;-141.97;73.20;46619.69;5063517;28;20208;-89
2024/01/13 00:48:43;;;;;;;51.57;20.07;;;;;;;-141.97;72.93;46510.16;5064205;28;20617;-87
2024/01/13 00:51:12;;;;;;;49.90;18.77;;;;;;;-141.97;72.96;46489.03;5079892;28;20192;-89
2024/01/13 00:53:38;;;;;;;57.85;20.15;;;;;;;-141.97;72.64;45991.41;5080804;28;20161;-89
2024/01/13 00:56:04;;;;;;;46.65;16.75;;;;;;;-141.97;72.81;46316.09;5064899;28;20583;-88
2024/01/13 00:58:29;;;;;;;42.20;14.53;;;;;;;-141.97;72.22;46148.94;5083062;28;20160;-89
2024/01/13 01:00:59;;;;;;;50.93;18.27;;;;;;;-141.97;72.45;46608.16;5081676;28;20407;-87
2024/01/13 01:03:26;;;;;;;50.50;20.23;;;;;;;-141.97;72.44;46300.72;5081919;28;20188;-88
2024/01/13 01:05:52;;;;;;;54.45;20.67;;;;;;;-141.97;72.22;46560.13;5064341;28;20177;-88
2024/01/13 01:08:17;;;;;;;48.67;20.67;;;;;;;-141.97;72.49;46262.28;5064617;28;20201;-88
2024/01/13 01:10:43;;;;;;;53.87;20.13;;;;;;;-141.97;72.43;46515.91;5063548;28;20233;-88
2024/01/13 01:13:08;;;;;;;51.00;17.97;;;;;;;-141.97;72.04;46654.28;5084333;28;20251;-89
2024/01/13 01:15:34;;;;;;;39.70;15.47;;;;;;;-141.97;71.59;46281.50;5086240;28;20168;-90
2024/01/13 01:17:59;;;;;;;49.90;19.17;;;;;;;-141.97;71.40;46554.34;5085463;28;20161;-88
2024/01/13 01:20:25;;;;;;;58.63;22.33;;;;;;;-141.97;71.54;46304.56;5066929;28;20164;-89
2024/01/13 01:22:50;;;;;;;57.47;19.70;;;;;;;-141.97;71.13;46417.94;5084011;28;20572;-89
2024/01/13 01:25:16;;;;;;;49.63;17.03;;;;;;;-141.97;71.39;46189.28;5064071;28;20165;-89
2024/01/13 01:27:41;;;;;;;49.83;17.03;;;;;;;-141.97;71.04;46654.28;5081366;28;20180;-89
2024/01/13 01:30:07;;;;;;;43.83;16.93;;;;;;;-141.97;70.85;46127.81;5079780;28;20350;-89
2024/01/13 01:32:32;;;;;;;53.97;19.80;;;;;;;-141.97;70.60;46494.78;5061760;28;20212;-89
2024/01/13 01:34:58;;;;;;;64.17;23.20;;;;;;;-141.97;69.83;46646.59;5059161;28;20524;-88
2024/01/13 01:37:23;;;;;;;49.57;18.17;;;;;;;-141.97;69.53;46356.44;5075619;28;20514;-88
2024/01/13 01:39:48;;;;;;;51.47;18.77;;;;;;;-141.97;69.08;46216.19;5074860;28;20273;-89
2024/01/13 01:42:14;;;;;;;56.97;20.03;;;;;;;-141.97;68.85;46558.19;5076544;28;20242;-88
2024/01/13 01:44:39;;;;;;;57.60;19.50;;;;;;;-141.97;68.71;46588.94;5088103;28;20176;-88
2024/01/13 01:47:08;;;;;;;53.50;18.77;;;;;;;-141.97;68.33;46523.59;5092640;28;20165;-89
2024/01/13 01:49:33;;;;;;;35.75;14.13;;;;;;;-141.97;68.09;46348.75;5069035;28;20160;-89
2024/01/13 01:51:59;;;;;;;33.90;12.90;;;;;;;-141.97;67.78;46074.00;5082879;28;20260;-88
2024/01/13 01:54:24;;;;;;;42.50;15.17;;;;;;;-141.97;66.97;46239.25;5061415;28;20179;-88
2024/01/13 01:56:50;;;;;;;37.63;16.43;;;;;;;-141.97;66.30;46010.63;5057630;28;20247;-88
2024/01/13 01:59:15;;;;;;;45.07;16.93;;;;;;;-141.97;66.71;46181.59;5059936;28;20165;-89
2024/01/13 02:01:43;;;;;;;40.57;16.00;;;;;;;-141.97;66.07;46688.84;5060489;28;20609;-87
2024/01/13 02:04:09;;;;;;;49.42;17.70;;;;;;;-141.97;65.66;46469.81;5060248;28;20223;-89
2024/01/13 02:06:34;;;;;;;39.33;14.30;;;;;;;-141.97;65.73;46195.06;5076319;28;20172;-88
2024/01/13 02:09:00;;;;;;;32.60;13.43;;;;;;;-141.97;65.66;46293.03;5073754;28;20200;-88
2024/01/13 02:11:25;;;;;;;41.20;16.47;;;;;;;-141.97;65.11;46660.03;5073843;28;20334;-88
2024/01/13 02:13:50;;;;;;;38.07;15.20;;;;;;;-141.97;64.75;46202.72;5083069;28;20189;-88
2024/01/13 02:16:16;;;;;;;37.20;13.63;;;;;;;-141.97;65.06;46223.88;5092288;28;20161;-89
2024/01/13 02:18:42;;;;;;;39.77;12.97;;;;;;;-141.97;64.67;46306.50;5073549;28;20232;-89
2024/01/13 02:21:09;;;;;;;55.03;19.63;;;;;;;-141.97;64.53;46291.13;5076908;28;20583;-89
2024/01/13 02:23:34;;;;;;;35.70;12.60;;;;;;;-141.97;64.15;46137.41;5074426;28;20177;-88
2024/01/13 02:25:59;;;;;;;38.07;14.33;;;;;;;-141.97;64.09;46072.09;5056369;28;20165;-88
2024/01/13 02:28:25;;;;;;;41.77;16.57;;;;;;;-141.97;63.16;46404.47;5074091;28;20164;-89
2024/01/13 02:30:50;;;;;;;33.80;12.97;;;;;;;-141.97;62.92;46158.53;5057891;28;20193;-89
2024/01/13 02:33:16;;;;;;;28.77;12.07;;;;;;;-141.97;62.32;46281.50;5056449;28;20165;-89
2024/01/13 02:35:41;;;;;;;28.53;11.17;;;;;;;-141.97;62.13;46179.69;5078739;28;20225;-88
2024/01/13 02:38:07;;;;;;;34.93;13.20;;;;;;;-141.97;61.94;46102.81;5061382;28;20164;-88
2024/01/13 02:40:32;;;;;;;34.67;10.93;;;;;;;-141.97;62.26;46540.91;5082161;28;20221;-88
2024/01/13 02:42:58;;;;;;;40.63;15.77;;;;;;;-141.97;61.63;46631.22;5083009;28;20648;-88
2024/01/13 02:45:23;;;;;;;39.53;14.20;;;;;;;-141.97;62.01;46504.38;5082175;28;20169;-86
2024/01/13 02:48:03;;;;;;;37.37;15.17;;;;;;;-141.97;61.91;46033.66;5064068;28;20192;-88
2024/01/13 02:50:29;;;;;;;21.25;10.48;;;;;;;-141.97;61.55;46562.03;5064397;28;20196;-87
2024/01/13 02:52:55;;;;;;;32.73;11.80;;;;;;;-141.97;61.20;46558.19;5074778;28;20183;-87
2024/01/13 02:55:20;;;;;;;28.37;11.57;;;;;;;-141.97;60.85;45958.75;5092247;28;20218;-88
2024/01/13 02:57:45;;;;;;;27.63;10.93;;;;;;;-141.97;60.67;46298.81;5082502;28;20191;-88
2024/01/13 03:00:13;;;;;;;41.53;15.13;;;;;;;-141.97;60.95;46218.09;5082742;28;20169;-88
2024/01/13 03:02:39;;;;;;;34.70;11.45;;;;;;;-141.97;60.57;46696.53;5082632;28;20191;-88
2024/01/13 03:05:07;;;;;;;28.80;10.90;;;;;;;-141.97;60.26;46527.44;5081880;28;20682;-88
2024/01/13 03:07:32;;;;;;;29.20;11.07;;;;;;;-141.97;60.12;46193.13;5081519;28;20165;-88
2024/01/13 03:09:58;;;;;;;34.70;14.20;;;;;;;-141.97;60.03;46646.59;5045106;28;20169;-88
2024/01/13 03:12:23;;;;;;;25.80;10.53;;;;;;;-141.97;59.88;46233.47;5062008;28;20288;-87
2024/01/13 03:14:49;;;;;;;42.60;17.00;;;;;;;-141.97;60.06;46481.34;5058671;28;20169;-88
2024/01/13 03:17:14;;;;;;;36.97;14.60;;;;;;;-141.97;59.86;46125.88;5039327;28;20232;-88
2024/01/13 03:19:40;;;;;;;33.40;13.23;;;;;;;-141.97;59.28;46456.34;5040988;28;20165;-88
2024/01/13 03:22:05;;;;;;;36.00;14.37;;;;;;;-141.97;59.32;46508.22;5059849;28;20215;-89
2024/01/13 03:24:31;;;;;;;33.67;11.97;;;;;;;-141.97;59.25;46535.13;5042379;28;20569;-87
2024/01/13 03:26:56;;;;;;;31.13;11.20;;;;;;;-141.97;59.38;46074.00;5042171;28;20201;-87
2024/01/13 03:29:22;;;;;;;27.43;9.87;;;;;;;-141.97;59.45;46581.25;5064674;28;20166;-88
2024/01/13 03:31:47;;;;;;;26.67;10.83;;;;;;;-141.97;58.99;46465.97;5067811;28;20196;-89
2024/01/13 03:34:13;;;;;;;33.60;13.97;;;;;;;-141.97;58.72;46596.63;5048152;28;20220;-88
2024/01/13 03:36:38;;;;;;;43.57;16.37;;;;;;;-141.97;59.08;46039.44;5068294;28;20180;-88
2024/01/13 03:39:04;;;;;;;34.43;12.90;;;;;;;-141.97;59.12;46604.31;5064028;28;20221;-88
2024/01/13 03:41:29;;;;;;;42.70;17.73;;;;;;;-141.97;58.82;46131.66;5040953;28;20168;-88
2024/01/13 03:43:57;;;;;;;31.43;12.93;;;;;;;-141.97;59.16;46506.31;5061072;28;20205;-89
2024/01/13 03:46:23;;;;;;;38.72;13.48;;;;;;;-141.97;58.61;46650.44;5044530;28;20185;-88
2024/01/13 03:48:49;;;;;;;34.20;13.18;;;;;;;-141.97;59.37;46458.28;5045742;28;20250;-88
2024/01/13 03:51:16;;;;;;;34.17;13.50;;;;;;;-141.97;58.77;46527.44;5062809;28;20193;-87
2024/01/13 03:53:42;;;;;;;24.17;10.07;;;;;;;-141.97;58.97;46563.97;5045123;28;20218;-87
2024/01/13 03:56:08;;;;;;;39.73;14.07;;;;;;;-141.97;58.82;46154.69;5061875;28;20211;-86
2024/01/13 03:58:35;;;;;;;43.17;15.93;;;;;;;-141.97;58.68;46008.69;5043995;28;20169;-87
2024/01/13 04:01:01;;;;;;;40.65;15.93;;;;;;;-141.97;58.96;46462.13;5061513;28;20585;-86
2024/01/13 04:03:27;;;;;;;38.30;14.35;;;;;;;-141.97;58.00;46446.75;5066669;28;20517;-89
2024/01/13 04:05:56;;;;;;;43.20;16.30;;;;;;;-141.97;57.83;46120.13;5052417;28;20180;-88
2024/01/13 04:08:22;;;;;;;37.63;15.88;;;;;;;-141.97;57.86;46116.28;5069311;28;20265;-88
2024/01/13 04:10:48;;;;;;;30.93;12.97;;;;;;;-141.97;58.69;46143.19;5069227;28;20197;-88
2024/01/13 04:13:14;;;;;;;34.47;13.77;;;;;;;-141.97;58.48;46375.66;5068027;28;20196;-89
2024/01/13 04:15:40;;;;;;;50.83;18.83;;;;;;;-141.97;58.25;46537.06;5049919;28;20241;-89
2024/01/13 04:18:06;;;;;;;37.53;13.88;;;;;;;-141.97;58.53;46435.22;5042681;28;20173;-87
2024/01/13 04:20:32;;;;;;;29.57;12.57;;;;;;;-141.97;58.00;46304.56;5058271;28;20220;-88
2024/01/13 04:22:57;;;;;;;42.53;16.40;;;;;;;-141.97;57.98;46014.44;5040865;28;20200;-89
2024/01/13 04:25:23;;;;;;;32.63;11.80;;;;;;;-141.97;57.63;46546.66;5061587;28;20193;-88
2024/01/13 04:27:50;;;;;;;27.67;12.87;;;;;;;-141.97;56.69;46492.88;5043014;28;20588;-88
2024/01/13 04:30:15;;;;;;;32.03;14.45;;;;;;;-141.97;57.26;45958.75;5062099;28;20184;-88
2024/01/13 04:32:42;;;;;;;32.63;11.73;;;;;;;-141.97;57.25;46193.13;5060384;28;20170;-87
2024/01/13 04:35:08;;;;;;;33.78;13.63;;;;;;;-141.97;56.79;46673.47;5063195;28;20165;-88
2024/01/13 04:37:34;;;;;;;24.90;10.57;;;;;;;-141.97;56.39;46283.44;5066041;28;20526;-88
2024/01/13 04:40:00;;;;;;;30.57;12.03;;;;;;;-141.97;56.39;46066.31;5079035;28;20558;-87
2024/01/13 04:42:25;;;;;;;37.57;14.83;;;;;;;-141.97;56.60;46110.50;5075952;28;20617;-88
2024/01/13 04:44:51;;;;;;;38.00;14.10;;;;;;;-141.97;56.44;46220.03;5078899;28;20153;-88
2024/01/13 04:47:16;;;;;;;36.77;16.30;;;;;;;-141.97;56.24;45993.31;5078662;28;20276;-89
2024/01/13 04:49:42;;;;;;;33.57;12.73;;;;;;;-141.97;55.72;46615.84;5061092;28;20179;-88
2024/01/13 04:52:07;;;;;;;32.17;12.57;;;;;;;-141.97;56.15;46635.06;5059687;28;20280;-88
2024/01/13 04:54:33;;;;;;;26.80;11.27;;;;;;;-141.97;56.29;46014.44;5077921;28;20164;-89
2024/01/13 04:57:00;;;;;;;40.00;14.93;;;;;;;-141.97;56.60;46462.13;5059565;28;20201;-88
2024/01/13 04:59:25;;;;;;;32.55;12.95;;;;;;;-141.97;56.80;46538.97;5059839;28;20196;-88
2024/01/13 05:01:51;;;;;;;36.03;10.47;;;;;;;-141.97;56.88;46465.97;5065183;28;20279;-88
2024/01/13 05:04:17;;;;;;;43.40;16.97;;;;;;;-141.97;57.09;46102.81;5066333;28;20177;-88
2024/01/13 05:06:42;;;;;;;20.20;9.27;;;;;;;-141.97;56.40;46231.56;5083380;28;20196;-88
2024/01/13 05:09:09;;;;;;;22.50;9.40;;;;;;;-141.97;56.32;46050.97;5082116;28;20165;-87
2024/01/13 05:11:35;;;;;;;26.80;10.95;;;;;;;-141.97;56.53;46556.28;5081736;28;20192;-88
2024/01/13 05:14:00;;;;;;;24.07;9.37;;;;;;;-141.97;55.86;46172.00;5081449;28;20566;-87
2024/01/13 05:16:25;;;;;;;36.77;12.80;;;;;;;-141.97;56.25;46300.72;5081654;28;20189;-87
2024/01/13 05:18:51;;;;;;;30.10;11.70;;;;;;;-141.97;55.90;46686.94;5070497;28;20176;-87
2024/01/13 05:21:16;;;;;;;27.70;11.87;;;;;;;-141.97;55.93;46454.44;5086859;28;20149;-87
2024/01/13 05:23:42;;;;;;;29.27;11.90;;;;;;;-141.97;55.86;46519.75;5083517;28;20160;-88
2024/01/13 05:26:07;;;;;;;27.40;11.50;;;;;;;-141.97;55.72;46012.53;5063565;28;20248;-87
2024/01/13 05:28:33;;;;;;;23.87;10.23;;;;;;;-141.97;56.19;46212.34;5065180;28;20589;-88
2024/01/13 05:30:58;;;;;;;30.63;13.33;;;;;;;-141.97;56.80;46031.75;5082772;28;20180;-89
2024/01/13 05:33:23;;;;;;;33.47;13.00;;;;;;;-141.97;56.94;46110.50;5082642;28;20153;-87
2024/01/13 05:35:49;;;;;;;45.60;17.80;;;;;;;-141.97;57.87;45928.00;5064967;28;20175;-88
2024/01/13 05:38:14;;;;;;;31.70;13.23;;;;;;;-141.97;57.66;46537.06;5082211;28;20750;-89
2024/01/13 05:40:43;;;;;;;26.43;12.73;;;;;;;-141.97;58.13;46546.66;5063653;28;20216;-87
2024/01/13 05:43:09;;;;;;;45.58;17.73;;;;;;;-141.97;58.03;45983.72;5062473;28;20169;-88
2024/01/13 05:45:35;;;;;;;27.70;10.70;;;;;;;-141.97;58.42;46546.66;5081734;28;20165;-88
2024/01/13 05:48:00;;;;;;;20.50;9.40;;;;;;;-141.97;58.81;46619.69;5068687;28;20169;-87
2024/01/13 05:50:27;;;;;;;31.40;12.13;;;;;;;-141.97;59.09;46331.47;5087074;28;20207;-88
2024/01/13 05:52:52;;;;;;;26.25;11.02;;;;;;;-141.97;59.20;46535.13;5075268;28;20176;-87
2024/01/13 05:55:18;;;;;;;28.70;11.60;;;;;;;-141.97;59.34;46496.72;5088036;28;20176;-88
2024/01/13 05:57:44;;;;;;;35.30;13.77;;;;;;;-141.97;59.75;46608.16;5094797;28;20594;-88
2024/01/13 06:00:09;;;;;;;35.90;14.57;;;;;;;-141.97;60.47;46085.53;5090954;28;20229;-88
2024/01/13 06:02:35;;;;;;;35.40;13.43;;;;;;;-141.97;60.03;46068.25;5069097;28;20302;-87
2024/01/13 06:05:01;;;;;;;50.40;18.67;;;;;;;-141.97;60.35;45954.91;5068171;28;20169;-88
2024/01/13 06:07:26;;;;;;;42.67;15.00;;;;;;;-141.97;60.16;46100.91;5067424;28;20263;-87
2024/01/13 06:09:52;;;;;;;40.83;16.73;;;;;;;-141.97;60.36;46635.06;5086603;28;20163;-87
2024/01/13 06:12:17;;;;;;;44.23;16.50;;;;;;;-141.97;60.41;46619.69;5081540;28;20181;-86
2024/01/13 06:14:43;;;;;;;31.43;12.03;;;;;;;-141.97;59.95;46220.03;5078645;28;20573;-87
2024/01/13 06:17:08;;;;;;;40.10;14.30;;;;;;;-141.97;60.44;45937.59;5083695;28;20489;-88
2024/01/13 06:19:35;;;;;;;41.60;15.70;;;;;;;-141.97;60.41;46302.66;5063278;28;20180;-87
2024/01/13 06:22:01;;;;;;;34.83;13.05;;;;;;;-141.97;60.87;46049.03;5079871;28;20643;-88
2024/01/13 06:24:27;;;;;;;32.53;13.35;;;;;;;-141.97;60.50;46310.31;5065357;28;20183;-87
2024/01/13 06:26:52;;;;;;;31.70;11.70;;;;;;;-141.97;60.96;46281.50;5082198;28;20243;-89
2024/01/13 06:29:18;;;;;;;30.20;12.20;;;;;;;-141.97;61.33;46148.94;5068173;28;20229;-89
2024/01/13 06:31:43;;;;;;;39.10;15.23;;;;;;;-141.97;61.54;46692.69;5092613;28;20204;-88
2024/01/13 06:34:09;;;;;;;28.87;12.17;;;;;;;-141.97;60.96;46123.97;5094784;28;20172;-87
2024/01/13 06:36:34;;;;;;;29.73;11.60;;;;;;;-141.97;61.10;46631.22;5066334;28;20165;-87
2024/01/13 06:38:59;;;;;;;40.30;16.10;;;;;;;-141.97;60.31;46631.22;5057639;28;20326;-89
2024/01/13 06:41:25;;;;;;;26.03;10.67;;;;;;;-141.97;59.48;46022.13;5074268;28;20252;-88
2024/01/13 06:43:50;;;;;;;34.63;12.87;;;;;;;-141.97;58.64;46139.34;5074685;28;20171;-88
2024/01/13 06:46:16;;;;;;;29.93;10.23;;;;;;;-141.97;58.33;46600.47;5072612;28;20199;-88
2024/01/13 06:48:42;;;;;;;39.10;13.57;;;;;;;-141.97;57.11;46008.69;5055272;28;20208;-89
2024/01/13 06:51:08;;;;;;;32.65;14.40;;;;;;;-141.97;56.56;46083.63;5056491;28;20184;-89
2024/01/13 06:53:33;;;;;;;23.50;10.80;;;;;;;-141.97;55.58;45993.31;5052443;28;20188;-86
2024/01/13 06:55:58;;;;;;;38.47;14.80;;;;;;;-141.97;55.31;45951.06;5051682;28;20518;-88
2024/01/13 06:58:24;;;;;;;37.10;15.17;;;;;;;-141.97;54.83;46118.19;5049717;28;20173;-88
2024/01/13 07:00:49;;;;;;;35.83;14.40;;;;;;;-141.97;53.62;46262.28;5050760;28;20288;-88
2024/01/13 07:03:15;;;;;;;34.33;13.70;;;;;;;-141.97;53.15;46064.41;5049626;28;20189;-89
2024/01/13 07:05:40;;;;;;;29.13;11.33;;;;;;;-141.97;52.88;46054.81;5051607;28;20170;-88
2024/01/13 07:08:08;;;;;;;26.47;10.13;;;;;;;-141.97;52.63;46454.44;5052313;28;20165;-88
2024/01/13 07:10:34;;;;;;;34.10;12.57;;;;;;;-141.97;52.51;46070.16;5034740;28;20286;-87
2024/01/13 07:13:00;;;;;;;36.47;15.13;;;;;;;-141.97;52.03;46339.16;5059763;28;20277;-89
2024/01/13 07:15:25;;;;;;;31.93;12.67;;;;;;;-141.97;50.05;46271.91;5039230;28;20188;-86
2024/01/13 07:17:52;;;;;;;42.80;16.90;;;;;;;-141.97;48.40;46116.28;5037497;28;20196;-88
2024/01/13 07:20:17;;;;;;;37.20;14.87;;;;;;;-141.97;46.94;45974.09;5051561;28;20168;-86
2024/01/13 07:22:43;;;;;;;41.20;16.23;;;;;;;-141.97;47.54;46423.69;5049454;28;20787;-88
2024/01/13 07:25:08;;;;;;;30.73;12.33;;;;;;;-141.97;49.86;46100.91;5050344;28;20183;-87
2024/01/13 07:27:34;;;;;;;27.63;12.80;;;;;;;-141.97;50.38;46615.84;5049281;28;20173;-87
2024/01/13 07:30:00;;;;;;;23.97;10.90;;;;;;;-141.97;50.52;46173.91;5032946;28;20180;-87
2024/01/13 07:32:26;;;;;;;32.70;13.52;;;;;;;-141.97;51.20;46291.13;5051092;28;20193;-87
2024/01/13 07:34:51;;;;;;;27.80;12.40;;;;;;;-141.97;52.00;46152.78;5048671;28;20180;-88
2024/01/13 07:37:17;;;;;;;35.83;13.70;;;;;;;-141.97;51.39;46677.31;5032163;28;20207;-87
2024/01/13 07:39:45;;;;;;;32.40;12.70;;;;;;;-141.97;52.14;46281.50;5032185;28;20225;-87
2024/01/13 07:42:10;;;;;;;37.05;14.50;;;;;;;-141.97;51.94;46300.72;5050293;28;20173;-88
2024/01/13 07:44:36;;;;;;;32.87;13.70;;;;;;;-141.97;51.56;46210.41;5067917;28;20239;-88
2024/01/13 07:47:03;;;;;;;33.87;13.77;;;;;;;-141.97;51.07;46245.00;5048674;28;20165;-87
2024/01/13 07:49:29;;;;;;;27.40;12.65;;;;;;;-141.97;50.72;46281.50;5051108;28;20657;-88
2024/01/13 07:51:56;;;;;;;38.15;15.93;;;;;;;-141.97;50.86;46592.78;5033431;28;20212;-87
2024/01/13 07:54:27;;;;;;;37.00;14.63;;;;;;;-141.97;50.54;46271.91;5054902;28;20157;-87
2024/01/13 07:56:53;;;;;;;36.17;15.73;;;;;;;-141.97;49.80;45964.50;5051454;28;20254;-88
2024/01/13 07:59:18;;;;;;;41.23;15.90;;;;;;;-141.97;49.94;46341.06;5050123;28;20173;-87
2024/01/13 08:01:46;;;;;;;35.73;14.50;;;;;;;-141.97;49.94;46273.81;5050836;28;20185;-88
2024/01/13 08:04:13;;;;;;;36.13;13.97;;;;;;;-141.97;50.03;46118.19;5052510;28;20166;-89
2024/01/13 08:06:39;;;;;;;40.93;13.43;;;;;;;-141.97;49.67;46047.13;5036439;28;20419;-88
2024/01/13 08:09:06;;;;;;;44.93;18.20;;;;;;;-141.97;48.79;46175.84;5049214;28;20400;-88
2024/01/13 08:11:31;;;;;;;37.20;16.47;;;;;;;-141.97;49.32;46489.03;5044825;28;20460;-87
2024/01/13 08:13:57;;;;;;;29.17;13.40;;;;;;;-141.97;48.96;46412.16;5047790;28;20456;-88
2024/01/13 08:16:25;;;;;;;28.17;11.90;;;;;;;-141.97;48.86;46638.91;5070514;28;20161;-90
2024/01/13 08:18:51;;;;;;;25.45;12.13;;;;;;;-141.97;48.44;46185.44;5055226;28;20185;-91
2024/01/13 08:21:18;;;;;;;29.00;12.10;;;;;;;-141.97;48.15;46425.63;5055917;28;20180;-89
2024/01/13 08:23:53;;;;;;;23.67;9.77;;;;;;;-141.97;47.65;46004.84;5054885;28;20246;-90
2024/01/13 08:26:24;;;;;;;31.92;13.20;;;;;;;-141.97;47.95;46279.59;5054307;28;20404;-89
2024/01/13 08:28:50;;;;;;;28.10;12.93;;;;;;;-141.97;47.51;46250.78;5051007;28;20174;-89
2024/01/13 08:31:16;;;;;;;34.58;15.00;;;;;;;-141.97;47.50;46237.31;5068143;28;20447;-88
2024/01/13 08:33:42;;;;;;;30.50;13.73;;;;;;;-141.97;47.17;46421.78;5042989;28;20172;-89
2024/01/13 08:36:07;;;;;;;34.07;14.60;;;;;;;-141.97;46.13;46446.75;5066103;28;20161;-88
2024/01/13 08:38:33;;;;;;;32.03;16.27;;;;;;;-141.97;46.44;46537.06;5048406;28;20169;-89
2024/01/13 08:40:58;;;;;;;30.57;13.07;;;;;;;-141.97;46.16;46375.66;5058097;28;20263;-90
2024/01/13 08:43:24;;;;;;;39.53;14.97;;;;;;;-141.97;45.55;46166.22;5043442;28;20169;-86
2024/01/13 08:45:49;;;;;;;39.53;16.67;;;;;;;-141.97;46.38;46433.28;5038628;28;20195;-88
2024/01/13 08:48:15;;;;;;;32.03;12.70;;;;;;;-141.97;45.87;45981.78;5056744;28;20171;-86
2024/01/13 08:50:41;;;;;;;22.20;11.40;;;;;;;-141.97;46.01;46396.78;5055619;28;20571;-87
2024/01/13 08:53:06;;;;;;;35.63;17.57;;;;;;;-141.97;45.27;46469.81;5036889;28;20412;-87
2024/01/13 08:55:32;;;;;;;27.57;11.43;;;;;;;-141.97;44.97;46477.50;5054982;28;20223;-91
2024/01/13 08:57:57;;;;;;;32.10;12.83;;;;;;;-141.97;44.24;45966.44;5054395;28;20255;-87
2024/01/13 09:00:23;;;;;;;24.27;12.17;;;;;;;-141.97;44.36;46419.84;5054221;28;20162;-87
2024/01/13 09:02:48;;;;;;;32.43;12.93;;;;;;;-141.97;45.07;46537.06;5054674;28;20276;-88
2024/01/13 09:05:13;;;;;;;31.23;14.60;;;;;;;-141.97;44.91;46425.63;5054317;28;20176;-88
2024/01/13 09:07:39;;;;;;;25.07;11.73;;;;;;;-141.97;44.28;46569.72;5053691;28;20322;-87
2024/01/13 09:10:05;;;;;;;34.63;14.80;;;;;;;-141.97;44.53;46193.13;5035360;28;20493;-87
2024/01/13 09:12:30;;;;;;;35.07;15.60;;;;;;;-141.97;43.74;46097.06;5036583;28;20628;-89
2024/01/13 09:14:56;;;;;;;33.57;14.33;;;;;;;-141.97;42.63;46439.06;5036505;28;20400;-87
2024/01/13 09:17:22;;;;;;;25.23;10.50;;;;;;;-141.97;43.63;46241.16;5054754;28;20180;-88
2024/01/13 09:19:48;;;;;;;25.37;10.80;;;;;;;-141.97;42.95;46229.63;5055300;28;20629;-87
2024/01/13 09:22:14;;;;;;;30.77;12.83;;;;;;;-141.97;44.03;46093.22;5054411;28;20617;-89
2024/01/13 09:24:41;;;;;;;29.43;12.13;;;;;;;-141.97;43.17;46202.72;5038106;28;20165;-87
2024/01/13 09:27:07;;;;;;;32.73;14.67;;;;;;;-141.97;42.85;46444.81;5037147;28;20169;-87
2024/01/13 09:29:32;;;;;;;21.80;10.50;;;;;;;-141.97;43.67;45956.81;5036755;28;20404;-87
2024/01/13 09:31:59;;;;;;;31.67;13.63;;;;;;;-141.97;42.90;46220.03;5054141;28;20197;-88
2024/01/13 09:34:24;;;;;;;30.40;14.30;;;;;;;-141.97;43.16;46062.47;5054169;28;20154;-87
2024/01/13 09:36:50;;;;;;;23.63;10.53;;;;;;;-141.97;43.58;46099.00;5053763;28;20845;-88
2024/01/13 09:39:16;;;;;;;32.37;14.30;;;;;;;-141.97;42.97;46327.63;5036295;28;20237;-88
2024/01/13 09:41:45;;;;;;;28.10;12.87;;;;;;;-141.97;43.05;46173.91;5056123;28;20399;-89
2024/01/13 09:44:23;;;;;;;31.20;14.17;;;;;;;-141.97;42.31;46208.50;5053399;28;20613;-88
2024/01/13 09:46:54;;;;;;;25.10;12.33;;;;;;;-141.97;42.99;46208.50;5054322;28;20441;-87
2024/01/13 09:49:20;;;;;;;30.13;12.37;;;;;;;-141.97;42.97;46085.53;5054119;28;20849;-88
2024/01/13 09:51:47;;;;;;;34.27;15.27;;;;;;;-141.97;43.46;46337.22;5055011;28;20462;-88
2024/01/13 09:54:20;;;;;;;27.70;11.13;;;;;;;-141.97;43.22;46139.34;5055468;28;20396;-87
2024/01/13 09:56:47;;;;;;;27.50;11.70;;;;;;;-141.97;42.09;46074.00;5055144;28;20404;-88
2024/01/13 09:59:12;;;;;;;24.07;10.80;;;;;;;-141.97;42.78;46177.75;5036339;28;20461;-88
2024/01/13 10:01:39;;;;;;;44.20;17.97;;;;;;;-141.97;42.90;46237.31;5036092;28;20502;-87
2024/01/13 10:04:07;;;;;;;35.83;13.20;;;;;;;-141.97;42.79;46525.53;5035167;28;20181;-88
2024/01/13 10:06:34;;;;;;;30.00;14.43;;;;;;;-141.97;42.30;46001.00;5053729;28;20860;-88
2024/01/13 10:09:00;;;;;;;46.17;20.13;;;;;;;-141.97;42.91;46500.56;5035427;28;20411;-89
2024/01/13 10:11:26;;;;;;;35.13;16.53;;;;;;;-141.97;41.99;46083.63;5054028;28;20456;-88
2024/01/13 10:13:58;;;;;;;36.07;16.37;;;;;;;-141.97;41.88;46127.81;5053908;28;20975;-88
2024/01/13 10:16:26;;;;;;;29.80;14.43;;;;;;;-141.97;40.95;46120.13;5053542;28;20547;-88
2024/01/13 10:18:52;;;;;;;34.07;15.90;;;;;;;-141.97;41.66;46047.13;5052297;28;20411;-88
2024/01/13 10:21:18;;;;;;;33.17;16.83;;;;;;;-141.97;42.16;46072.09;5054076;28;20408;-88
2024/01/13 10:23:43;;;;;;;31.77;14.80;;;;;;;-141.97;42.04;46018.28;5065924;28;20415;-88
2024/01/13 10:26:10;;;;;;;27.80;12.40;;;;;;;-141.97;41.53;46145.09;5070300;28;20176;-86
2024/01/13 10:28:36;;;;;;;25.97;11.17;;;;;;;-141.97;42.77;46172.00;5070596;28;20161;-87
2024/01/13 10:31:02;;;;;;;24.53;10.23;;;;;;;-141.97;42.66;46181.59;5037464;28;20497;-88
2024/01/13 10:33:29;;;;;;;26.87;11.63;;;;;;;-141.97;42.11;46214.25;5035731;28;20916;-87
2024/01/13 10:35:54;;;;;;;30.23;15.53;;;;;;;-141.97;41.62;46604.31;5052414;28;20497;-87
2024/01/13 10:38:20;;;;;;;38.53;20.13;;;;;;;-141.97;41.36;46537.06;5052199;28;20407;-89
2024/01/13 10:40:45;;;;;;;39.73;18.07;;;;;;;-141.97;41.24;46181.59;5034791;28;20371;-87
2024/01/13 10:43:13;;;;;;;24.03;10.53;;;;;;;-141.97;40.58;46193.13;5032728;28;20219;-87
2024/01/13 10:45:42;;;;;;;31.53;12.73;;;;;;;-141.97;41.68;46208.50;5032758;28;20162;-88
2024/01/13 10:48:17;;;;;;;31.37;13.57;;;;;;;-141.97;41.98;46172.00;5032808;28;20897;-87
2024/01/13 10:50:46;;;;;;;31.40;14.43;;;;;;;-141.97;41.54;45960.66;5033788;28;20448;-88
2024/01/13 10:53:24;;;;;;;23.67;11.87;;;;;;;-141.97;41.98;46183.53;5035891;28;20411;-87
2024/01/13 10:55:53;;;;;;;32.67;14.90;;;;;;;-141.97;41.75;46183.53;5033462;28;20459;-88